Time;durP1;ratioP1;P1;durP2;ratioP2;P2;SDS_P1;SDS_P2;PMS_P1;PMS_P2;Temp;Humidity;BMP_temperature;BMP_pressure;BME280_temperature;BME280_humidity;BME280_pressure;Samples;Min_cycle;Max_cycle;Signal;HPM_P1;HPM_P2
2021/03/31 00:01:33;;;;;;;9.20;8.20;;;12.90;55.20;;;;;;5059740;28;20184;-68
2021/03/31 00:03:58;;;;;;;10.57;7.33;;;12.80;55.30;;;;;;5067102;28;20667;-67
2021/03/31 00:06:25;;;;;;;13.57;7.73;;;12.80;55.50;;;;;;5062444;28;20444;-66
2021/03/31 00:08:50;;;;;;;9.10;7.33;;;12.80;55.60;;;;;;5054107;28;20244;-67
2021/03/31 00:11:16;;;;;;;8.53;7.33;;;12.80;56.00;;;;;;5058796;28;20850;-67
2021/03/31 00:13:42;;;;;;;9.90;7.60;;;12.70;56.30;;;;;;5070115;28;20182;-67
2021/03/31 00:16:08;;;;;;;13.70;9.03;;;12.60;56.70;;;;;;5053587;28;20811;-67
2021/03/31 00:18:34;;;;;;;15.97;9.03;;;12.50;57.00;;;;;;5058257;28;20932;-67
2021/03/31 00:21:00;;;;;;;11.80;8.20;;;12.50;57.20;;;;;;5052557;28;20185;-69
2021/03/31 00:23:27;;;;;;;9.57;8.57;;;12.50;58.80;;;;;;5050725;28;20197;-68
2021/03/31 00:25:54;;;;;;;11.80;8.53;;;12.40;58.70;;;;;;5059446;28;20425;-67
2021/03/31 00:28:20;;;;;;;10.13;9.10;;;12.40;58.30;;;;;;5061339;28;20432;-67
2021/03/31 00:30:46;;;;;;;11.47;8.50;;;12.40;58.40;;;;;;5057122;28;20827;-68
2021/03/31 00:33:12;;;;;;;10.43;9.33;;;12.30;59.40;;;;;;5070412;28;20897;-67
2021/03/31 00:35:39;;;;;;;17.40;14.30;;;12.30;59.60;;;;;;5055930;28;20424;-68
2021/03/31 00:38:06;;;;;;;18.83;13.43;;;12.20;60.00;;;;;;5060669;28;20196;-67
2021/03/31 00:40:39;;;;;;;15.50;11.17;;;12.10;59.80;;;;;;5064797;28;20455;-67
2021/03/31 00:43:05;;;;;;;12.67;10.57;;;12.10;60.80;;;;;;5055027;28;20435;-67
2021/03/31 00:45:31;;;;;;;10.63;8.57;;;12.10;62.90;;;;;;5055216;28;20635;-67
2021/03/31 00:47:57;;;;;;;13.40;9.43;;;12.00;65.00;;;;;;5054590;28;20582;-67
2021/03/31 00:50:23;;;;;;;15.33;10.60;;;11.90;64.70;;;;;;5063028;28;20451;-67
2021/03/31 00:52:51;;;;;;;13.87;10.17;;;11.80;63.90;;;;;;5066889;28;20181;-68
2021/03/31 00:55:20;;;;;;;11.63;8.90;;;11.80;63.90;;;;;;5065872;28;20439;-68
2021/03/31 00:57:47;;;;;;;13.70;8.90;;;11.80;65.30;;;;;;5060531;28;20460;-67
2021/03/31 01:00:14;;;;;;;10.57;9.10;;;11.80;64.80;;;;;;5066933;28;20454;-67
2021/03/31 01:02:40;;;;;;;11.03;9.60;;;11.80;64.70;;;;;;5055925;28;20905;-67
2021/03/31 01:05:08;;;;;;;17.10;11.80;;;11.90;65.30;;;;;;5055422;28;20438;-67
2021/03/31 01:07:33;;;;;;;18.37;14.00;;;11.90;66.30;;;;;;5066606;28;20430;-67
2021/03/31 01:09:59;;;;;;;14.20;11.10;;;11.80;66.60;;;;;;5055561;28;20478;-68
2021/03/31 01:12:51;;;;;;;17.40;11.10;;;11.70;66.70;;;;;;5061442;28;20181;-67
2021/03/31 01:15:30;;;;;;;17.90;13.97;;;11.60;67.40;;;;;;5071466;28;20222;-67
2021/03/31 01:18:09;;;;;;;17.03;13.70;;;11.60;69.50;;;;;;5053399;28;21120;-67
2021/03/31 01:20:53;;;;;;;17.50;11.67;;;11.50;71.00;;;;;;5060912;28;20531;-68
2021/03/31 01:24:05;;;;;;;14.40;11.70;;;11.40;75.00;;;;;;5070373;28;20439;-68
2021/03/31 01:26:46;;;;;;;15.90;10.40;;;11.30;74.50;;;;;;5069143;28;20475;-67
2021/03/31 01:29:43;;;;;;;22.40;9.93;;;8.50;75.20;;;;;;5059462;28;20537;-67
2021/03/31 01:32:50;;;;;;;11.97;9.47;;;11.20;78.80;;;;;;5057843;28;20466;-67
2021/03/31 01:35:17;;;;;;;11.57;8.50;;;11.20;78.60;;;;;;5045282;28;20996;-67
2021/03/31 01:37:52;;;;;;;17.33;9.63;;;11.20;79.70;;;;;;5061411;28;20460;-67
2021/03/31 01:40:20;;;;;;;13.30;8.43;;;11.10;78.70;;;;;;5072306;28;20460;-67
2021/03/31 01:42:55;;;;;;;13.67;9.97;;;11.10;78.70;;;;;;5066728;28;20945;-67
2021/03/31 01:45:26;;;;;;;11.80;9.47;;;11.20;79.00;;;;;;5056588;28;20485;-67
2021/03/31 01:47:53;;;;;;;14.80;9.10;;;11.20;78.90;;;;;;5070396;28;20435;-67
2021/03/31 01:50:20;;;;;;;16.50;9.03;;;11.20;81.20;;;;;;5071076;28;20464;-67
2021/03/31 01:52:46;;;;;;;11.83;9.07;;;11.20;82.70;;;;;;5064245;28;20450;-66
2021/03/31 01:55:14;;;;;;;18.83;9.50;;;11.20;82.20;;;;;;5058365;28;20428;-67
2021/03/31 01:57:42;;;;;;;13.00;9.63;;;11.20;82.00;;;;;;5065195;28;20488;-67
2021/03/31 02:00:11;;;;;;;12.93;9.30;;;11.20;81.50;;;;;;5068109;28;20463;-68
2021/03/31 02:02:37;;;;;;;10.80;8.80;;;11.30;81.60;;;;;;5055229;28;20431;-68
2021/03/31 02:05:07;;;;;;;11.00;9.63;;;11.30;81.90;;;;;;5052536;28;20500;-67
2021/03/31 02:07:33;;;;;;;11.63;8.40;;;11.30;81.80;;;;;;5054753;28;20432;-67
2021/03/31 02:09:58;;;;;;;11.53;8.30;;;11.30;82.70;;;;;;5054744;28;20481;-67
2021/03/31 02:12:25;;;;;;;9.63;8.70;;;11.40;82.10;;;;;;5055948;28;20189;-66
2021/03/31 02:14:53;;;;;;;13.90;10.07;;;11.40;85.40;;;;;;5059952;28;20599;-67
2021/03/31 02:17:22;;;;;;;13.00;8.97;;;11.30;84.70;;;;;;5059494;28;20827;-67
2021/03/31 02:19:49;;;;;;;12.90;8.67;;;11.30;87.00;;;;;;5065602;28;20777;-67
2021/03/31 02:22:17;;;;;;;10.90;9.00;;;11.20;87.90;;;;;;5063994;28;20432;-67
2021/03/31 02:24:47;;;;;;;10.20;9.10;;;11.10;88.60;;;;;;5054036;28;20462;-67
2021/03/31 02:27:14;;;;;;;21.70;14.00;;;11.10;88.80;;;;;;5066682;28;20431;-67
2021/03/31 02:29:40;;;;;;;15.97;11.17;;;11.10;87.80;;;;;;5065294;28;20463;-66
2021/03/31 02:32:09;;;;;;;15.53;11.00;;;11.10;88.40;;;;;;5070003;28;20439;-68
2021/03/31 02:34:36;;;;;;;13.27;8.93;;;11.00;88.10;;;;;;5062113;28;20925;-66
2021/03/31 02:37:04;;;;;;;14.40;9.10;;;11.10;88.00;;;;;;5066435;28;20553;-67
2021/03/31 02:39:41;;;;;;;14.40;9.27;;;11.10;90.10;;;;;;5056869;28;21214;-66
2021/03/31 02:42:12;;;;;;;12.13;8.60;;;11.00;90.30;;;;;;5062645;28;20435;-66
2021/03/31 02:44:45;;;;;;;13.40;8.50;;;11.00;90.40;;;;;;5053304;28;20451;-66
2021/03/31 02:47:13;;;;;;;14.93;9.20;;;11.00;88.90;;;;;;5052534;28;20448;-67
2021/03/31 02:49:40;;;;;;;15.40;9.70;;;11.00;89.10;;;;;;5051408;28;20550;-67
2021/03/31 02:52:07;;;;;;;13.10;9.23;;;11.00;88.80;;;;;;5053916;28;20893;-66
2021/03/31 02:54:33;;;;;;;11.97;9.40;;;11.10;87.60;;;;;;5071273;28;20495;-67
2021/03/31 02:56:58;;;;;;;11.53;7.87;;;11.10;87.50;;;;;;5065877;28;20757;-67
2021/03/31 02:59:24;;;;;;;14.93;7.97;;;11.10;88.90;;;;;;5068867;28;20230;-67
2021/03/31 03:01:52;;;;;;;12.20;7.57;;;11.00;91.10;;;;;;5070087;28;20549;-66
2021/03/31 03:04:18;;;;;;;16.10;9.70;;;10.90;92.10;;;;;;5062278;28;20878;-66
2021/03/31 03:06:46;;;;;;;10.57;8.30;;;10.80;93.40;;;;;;5063612;28;20562;-66
2021/03/31 03:09:12;;;;;;;10.50;8.30;;;10.70;93.20;;;;;;5070285;28;20451;-66
2021/03/31 03:11:38;;;;;;;11.93;8.67;;;10.60;94.80;;;;;;5060665;28;20520;-67
2021/03/31 03:14:05;;;;;;;16.57;9.03;;;10.50;94.70;;;;;;5066605;28;20475;-66
2021/03/31 03:16:31;;;;;;;11.90;8.60;;;10.50;96.60;;;;;;5067076;28;20498;-68
2021/03/31 03:18:59;;;;;;;10.60;9.50;;;10.40;96.60;;;;;;5054789;28;20487;-68
2021/03/31 03:21:28;;;;;;;18.40;10.30;;;10.40;97.50;;;;;;5063073;28;20181;-67
2021/03/31 03:23:56;;;;;;;11.40;8.10;;;10.30;97.40;;;;;;5069574;28;21067;-66
2021/03/31 03:26:23;;;;;;;15.87;8.47;;;10.40;96.80;;;;;;5057473;28;20439;-67
2021/03/31 03:28:49;;;;;;;12.50;8.73;;;10.40;96.80;;;;;;5060947;28;20799;-67
2021/03/31 03:31:15;;;;;;;13.70;9.20;;;10.30;96.30;;;;;;5058062;28;20480;-67
2021/03/31 03:33:41;;;;;;;15.53;9.37;;;10.30;96.20;;;;;;5052080;28;20952;-67
2021/03/31 03:36:09;;;;;;;11.73;8.70;;;10.30;96.40;;;;;;5059900;28;20514;-67
2021/03/31 03:38:35;;;;;;;13.60;8.10;;;10.30;96.80;;;;;;5050717;28;20802;-67
2021/03/31 03:41:07;;;;;;;11.70;8.60;;;10.20;97.70;;;;;;5067520;28;20484;-68
2021/03/31 03:43:32;;;;;;;11.60;9.07;;;10.20;97.40;;;;;;5050893;28;20428;-69
2021/03/31 03:45:59;;;;;;;13.27;8.83;;;10.20;98.90;;;;;;5053239;28;20447;-69
2021/03/31 03:48:25;;;;;;;12.77;8.93;;;10.10;99.00;;;;;;5063035;28;20183;-68
2021/03/31 03:50:51;;;;;;;13.93;10.93;;;10.20;98.00;;;;;;5067896;28;20446;-69
2021/03/31 03:53:18;;;;;;;18.83;10.50;;;10.20;97.60;;;;;;5067977;28;20496;-67
2021/03/31 03:55:43;;;;;;;16.03;9.63;;;10.30;97.70;;;;;;5068653;28;20435;-68
2021/03/31 03:58:09;;;;;;;13.70;9.60;;;10.40;97.70;;;;;;5067355;28;20484;-68
2021/03/31 04:00:35;;;;;;;11.90;8.77;;;10.40;97.60;;;;;;5063641;28;20201;-67
2021/03/31 04:03:01;;;;;;;13.50;9.00;;;10.40;97.50;;;;;;5068745;28;20431;-68
2021/03/31 04:05:27;;;;;;;10.43;8.40;;;10.40;97.70;;;;;;5054130;28;20760;-67
2021/03/31 04:07:53;;;;;;;12.03;8.50;;;10.40;97.70;;;;;;5057453;28;20212;-68
2021/03/31 04:10:23;;;;;;;12.57;8.50;;;10.40;97.30;;;;;;5061944;28;20201;-68
2021/03/31 04:12:50;;;;;;;20.03;10.83;;;10.30;97.50;;;;;;5058875;28;20481;-69
2021/03/31 04:15:17;;;;;;;14.40;8.30;;;10.30;97.70;;;;;;5056103;28;20431;-67
2021/03/31 04:17:44;;;;;;;11.47;8.30;;;10.30;97.90;;;;;;5051072;28;20512;-67
2021/03/31 04:20:13;;;;;;;12.03;8.53;;;10.30;97.80;;;;;;5058187;28;20956;-68
2021/03/31 04:22:39;;;;;;;11.80;9.07;;;10.20;98.20;;;;;;5065462;28;20431;-67
2021/03/31 04:25:08;;;;;;;11.77;8.40;;;10.10;99.90;;;;;;5061042;28;20424;-67
2021/03/31 04:27:35;;;;;;;13.30;9.57;;;10.10;99.90;;;;;;5051078;28;20913;-68
2021/03/31 04:30:04;;;;;;;11.07;9.27;;;9.90;99.90;;;;;;5055648;28;20452;-68
2021/03/31 04:32:30;;;;;;;13.53;8.70;;;9.80;99.90;;;;;;5069757;28;20521;-68
2021/03/31 04:34:56;;;;;;;16.03;8.70;;;9.80;99.90;;;;;;5054252;28;20428;-68
2021/03/31 04:37:21;;;;;;;14.10;10.10;;;9.80;99.90;;;;;;5066914;28;20485;-67
2021/03/31 04:39:47;;;;;;;11.50;8.20;;;9.70;99.90;;;;;;5050298;28;20194;-68
2021/03/31 04:42:12;;;;;;;17.20;9.40;;;9.60;99.90;;;;;;5063259;28;20253;-66
2021/03/31 04:44:38;;;;;;;14.00;9.07;;;9.60;99.90;;;;;;5075555;28;20251;-68
2021/03/31 04:47:04;;;;;;;10.43;8.43;;;9.50;99.90;;;;;;5077698;28;20267;-68
2021/03/31 04:49:29;;;;;;;22.60;10.13;;;9.50;99.90;;;;;;5065223;28;20291;-67
2021/03/31 04:51:55;;;;;;;23.63;14.80;;;9.50;99.90;;;;;;5067207;28;20558;-68
2021/03/31 04:54:21;;;;;;;29.93;18.57;;;9.70;99.90;;;;;;5064141;28;20185;-68
2021/03/31 04:56:46;;;;;;;17.27;10.33;;;9.80;99.90;;;;;;5058137;28;20212;-68
2021/03/31 04:59:12;;;;;;;13.87;8.80;;;9.80;99.90;;;;;;5069537;28;20253;-69
2021/03/31 05:01:38;;;;;;;13.43;10.03;;;9.90;99.90;;;;;;5054634;28;20513;-68
2021/03/31 05:04:04;;;;;;;11.93;8.73;;;10.00;99.90;;;;;;5064547;28;20559;-68
2021/03/31 05:06:29;;;;;;;14.30;8.73;;;10.00;99.90;;;;;;5067190;28;20431;-69
2021/03/31 05:08:55;;;;;;;13.87;7.93;;;10.00;99.90;;;;;;5082814;28;20184;-67
2021/03/31 05:11:20;;;;;;;17.33;8.60;;;10.10;99.90;;;;;;5075944;28;20176;-69
2021/03/31 05:13:46;;;;;;;12.93;8.33;;;10.00;99.90;;;;;;5086505;28;20204;-68
2021/03/31 05:16:11;;;;;;;13.20;9.40;;;10.00;99.90;;;;;;5083835;28;20193;-68
2021/03/31 05:18:37;;;;;;;16.70;9.50;;;9.90;99.90;;;;;;5079833;28;20173;-69
2021/03/31 05:21:03;;;;;;;9.20;7.50;;;9.90;99.90;;;;;;5080832;28;20176;-68
2021/03/31 05:23:29;;;;;;;12.70;8.93;;;9.90;99.90;;;;;;5088964;28;20169;-68
2021/03/31 05:25:54;;;;;;;16.37;9.20;;;9.80;99.90;;;;;;5089163;28;20433;-68
2021/03/31 05:28:20;;;;;;;12.60;8.90;;;10.00;99.90;;;;;;5068678;28;20169;-69
2021/03/31 05:30:45;;;;;;;18.00;9.70;;;10.10;99.90;;;;;;5066229;28;20204;-68
2021/03/31 05:33:11;;;;;;;12.23;7.97;;;10.20;99.90;;;;;;5076995;28;20260;-69
2021/03/31 05:35:36;;;;;;;22.93;8.53;;;10.30;99.90;;;;;;5062707;28;20173;-68
2021/03/31 05:38:02;;;;;;;17.57;9.57;;;10.40;99.90;;;;;;5066643;28;20219;-68
2021/03/31 05:40:31;;;;;;;15.10;9.23;;;10.40;99.90;;;;;;5079803;28;20188;-68
2021/03/31 05:42:58;;;;;;;16.20;9.57;;;10.50;99.90;;;;;;5072711;28;20255;-68
2021/03/31 05:45:23;;;;;;;13.23;10.10;;;10.60;99.90;;;;;;5072970;28;20522;-68
2021/03/31 05:47:49;;;;;;;14.30;8.47;;;10.60;99.90;;;;;;5073296;28;21016;-68
2021/03/31 05:50:16;;;;;;;14.33;8.90;;;10.70;99.50;;;;;;5084054;28;20453;-68
2021/03/31 05:52:44;;;;;;;11.83;9.10;;;10.80;99.10;;;;;;5063538;28;20188;-68
2021/03/31 05:55:12;;;;;;;13.87;9.37;;;10.90;98.60;;;;;;5069205;28;20422;-68
2021/03/31 05:57:38;;;;;;;20.37;9.73;;;11.00;98.60;;;;;;5058407;28;20546;-69
2021/03/31 06:00:10;;;;;;;16.00;9.93;;;11.10;98.80;;;;;;5056553;28;20516;-69
2021/03/31 06:02:36;;;;;;;15.27;9.00;;;11.20;97.90;;;;;;5060531;28;20427;-70
2021/03/31 06:05:02;;;;;;;18.27;11.70;;;11.30;97.60;;;;;;5060328;28;20427;-69
2021/03/31 06:07:28;;;;;;;16.40;9.00;;;11.40;97.40;;;;;;5068643;28;20484;-67
2021/03/31 06:10:21;;;;;;;19.83;9.37;;;11.50;97.00;;;;;;5057731;28;20451;-67
2021/03/31 06:13:00;;;;;;;13.77;8.93;;;11.50;96.80;;;;;;5073823;28;20173;-68
2021/03/31 06:15:41;;;;;;;12.87;8.73;;;11.50;96.80;;;;;;5057991;28;20427;-70
2021/03/31 06:18:19;;;;;;;15.13;9.90;;;11.50;96.60;;;;;;5069483;28;20486;-66
2021/03/31 06:20:59;;;;;;;14.50;8.90;;;11.60;96.60;;;;;;5061635;28;20440;-69
2021/03/31 06:26:33;;;;;;;15.50;9.47;;;11.80;96.10;;;;;;5064838;28;20432;-71
2021/03/31 06:29:07;;;;;;;12.73;10.33;;;11.90;95.90;;;;;;5057162;28;20466;-70
2021/03/31 06:31:39;;;;;;;17.57;10.23;;;12.00;95.70;;;;;;5047727;28;20446;-71
2021/03/31 06:34:07;;;;;;;14.23;9.53;;;12.10;95.50;;;;;;5072372;28;20462;-74
2021/03/31 06:36:42;;;;;;;19.33;10.80;;;12.20;95.60;;;;;;5056201;28;20446;-71
2021/03/31 06:39:24;;;;;;;14.27;10.30;;;12.30;95.10;;;;;;5069047;28;20490;-71
2021/03/31 06:41:54;;;;;;;14.47;10.17;;;12.40;95.00;;;;;;5069543;28;20430;-71
2021/03/31 06:49:36;;;;;;;17.17;10.53;;;12.30;95.50;;;;;;5054081;28;20538;-71
2021/03/31 06:52:05;;;;;;;18.33;10.63;;;12.20;95.70;;;;;;5069409;28;20422;-71
2021/03/31 06:54:50;;;;;;;21.57;10.60;;;12.10;96.30;;;;;;5053020;28;20550;-71
2021/03/31 06:57:36;;;;;;;18.07;10.87;;;12.10;96.70;;;;;;5058272;28;20459;-71
2021/03/31 07:00:08;;;;;;;17.97;9.50;;;12.20;96.80;;;;;;5057814;28;20439;-71
2021/03/31 07:02:36;;;;;;;12.83;9.83;;;12.40;96.80;;;;;;5064085;28;20427;-70
2021/03/31 07:05:03;;;;;;;13.90;9.60;;;12.60;96.40;;;;;;5067728;28;20960;-70
2021/03/31 07:07:31;;;;;;;14.50;10.50;;;12.90;96.10;;;;;;5064610;28;20517;-70
2021/03/31 07:10:17;;;;;;;13.50;9.37;;;13.20;96.30;;;;;;5055077;28;20542;-71
2021/03/31 07:12:51;;;;;;;13.83;10.83;;;13.60;95.20;;;;;;5052653;28;20443;-70
2021/03/31 07:15:21;;;;;;;11.60;10.10;;;13.90;93.70;;;;;;5060292;28;20432;-71
2021/03/31 07:17:53;;;;;;;13.50;11.30;;;13.90;92.70;;;;;;5063320;28;20455;-70
2021/03/31 07:20:20;;;;;;;13.30;9.03;;;14.20;92.50;;;;;;5053837;28;20503;-71
2021/03/31 07:22:45;;;;;;;18.20;11.77;;;14.50;92.20;;;;;;5052310;28;20435;-71
2021/03/31 07:25:13;;;;;;;17.03;11.33;;;14.90;91.80;;;;;;5058683;28;20420;-71
2021/03/31 07:27:39;;;;;;;19.10;11.10;;;15.20;90.70;;;;;;5057660;28;20176;-70
2021/03/31 07:30:10;;;;;;;15.13;9.67;;;15.40;90.30;;;;;;5057480;28;20521;-71
2021/03/31 07:32:50;;;;;;;17.17;10.60;;;15.50;88.80;;;;;;5060081;28;20427;-70
2021/03/31 07:35:17;;;;;;;13.20;10.03;;;15.20;89.40;;;;;;5067911;28;20426;-71
2021/03/31 07:37:44;;;;;;;15.87;10.37;;;15.30;90.30;;;;;;5065435;28;20480;-70
2021/03/31 07:40:12;;;;;;;14.10;9.20;;;15.60;87.90;;;;;;5054734;28;20447;-71
2021/03/31 07:42:46;;;;;;;15.83;9.47;;;15.80;87.50;;;;;;5052066;28;20432;-71
2021/03/31 07:45:13;;;;;;;10.63;9.53;;;16.00;86.40;;;;;;5063930;28;20477;-72
2021/03/31 07:47:40;;;;;;;19.03;10.80;;;16.10;86.10;;;;;;5057619;28;20769;-74
2021/03/31 07:50:09;;;;;;;13.07;9.40;;;16.20;84.40;;;;;;5061895;28;21249;-71
2021/03/31 07:52:48;;;;;;;17.27;10.40;;;16.30;83.00;;;;;;5055434;28;20439;-71
2021/03/31 07:55:40;;;;;;;13.00;10.27;;;16.70;81.20;;;;;;5059484;28;20432;-71
2021/03/31 07:58:18;;;;;;;11.80;9.03;;;16.80;80.60;;;;;;5050800;28;20470;-71
2021/03/31 08:00:44;;;;;;;10.67;9.43;;;17.10;78.10;;;;;;5063954;28;20479;-71
2021/03/31 08:03:11;;;;;;;11.80;9.27;;;17.40;78.00;;;;;;5062862;28;21090;-71
2021/03/31 08:06:00;;;;;;;11.60;10.00;;;17.70;77.80;;;;;;5063026;28;20177;-71
2021/03/31 08:08:26;;;;;;;12.03;10.10;;;18.20;76.00;;;;;;5061079;28;20508;-71
2021/03/31 08:10:51;;;;;;;15.13;10.00;;;18.40;74.10;;;;;;5069122;28;20459;-71
2021/03/31 08:13:29;;;;;;;10.53;8.60;;;18.50;73.40;;;;;;5061725;28;20186;-70
2021/03/31 08:15:57;;;;;;;15.63;9.20;;;18.70;73.10;;;;;;5061178;28;20256;-71
2021/03/31 08:18:24;;;;;;;13.93;10.97;;;19.00;71.30;;;;;;5062402;28;20726;-71
2021/03/31 08:20:50;;;;;;;16.37;10.20;;;19.40;70.40;;;;;;5070476;28;20448;-73
2021/03/31 08:23:48;;;;;;;13.70;9.83;;;20.00;69.10;;;;;;5072396;28;20423;-69
2021/03/31 08:26:30;;;;;;;12.17;9.90;;;20.50;66.20;;;;;;5066021;28;20415;-70
2021/03/31 08:28:57;;;;;;;11.47;8.67;;;20.80;59.80;;;;;;5066993;28;20431;-72
2021/03/31 08:31:25;;;;;;;10.03;8.93;;;21.00;59.60;;;;;;5072186;28;20480;-72
2021/03/31 08:33:51;;;;;;;9.17;8.27;;;21.00;58.40;;;;;;5058713;28;20779;-70
2021/03/31 08:36:17;;;;;;;10.90;8.30;;;21.00;59.00;;;;;;5063235;28;20430;-71
2021/03/31 08:38:54;;;;;;;10.87;9.77;;;21.40;59.00;;;;;;5059686;28;20169;-71
2021/03/31 08:41:23;;;;;;;11.77;10.10;;;21.90;57.10;;;;;;5060138;28;20185;-70
2021/03/31 08:44:11;;;;;;;12.53;8.77;;;22.20;52.70;;;;;;5065158;28;20996;-69
2021/03/31 08:46:37;;;;;;;10.37;9.10;;;22.30;49.40;;;;;;5054127;28;20443;-69
2021/03/31 08:49:02;;;;;;;16.00;9.30;;;22.20;48.80;;;;;;5062733;28;20481;-70
2021/03/31 08:51:28;;;;;;;10.93;9.63;;;22.40;48.90;;;;;;5070927;28;20177;-69
2021/03/31 08:54:01;;;;;;;13.73;8.97;;;22.30;47.80;;;;;;5058387;28;20172;-70
2021/03/31 08:56:27;;;;;;;10.37;9.37;;;22.80;48.20;;;;;;5065136;28;20201;-70
2021/03/31 08:58:56;;;;;;;13.13;8.90;;;23.30;45.90;;;;;;5066367;28;20493;-70
2021/03/31 09:01:42;;;;;;;9.93;8.90;;;23.60;47.30;;;;;;5066419;28;20431;-71
2021/03/31 09:04:26;;;;;;;11.47;8.67;;;24.50;47.20;;;;;;5063282;28;21004;-69
2021/03/31 09:06:56;;;;;;;10.80;8.20;;;25.60;45.10;;;;;;5058108;28;20812;-70
2021/03/31 09:09:22;;;;;;;12.73;7.40;;;26.30;43.50;;;;;;5063801;28;20478;-70
2021/03/31 09:11:56;;;;;;;11.80;8.27;;;27.00;42.40;;;;;;5060658;28;20443;-70
2021/03/31 09:14:24;;;;;;;9.57;8.50;;;27.60;41.90;;;;;;5057928;28;20456;-70
2021/03/31 09:17:04;;;;;;;15.43;8.73;;;28.10;40.00;;;;;;5062000;28;20832;-71
2021/03/31 09:19:32;;;;;;;11.27;8.13;;;28.60;38.60;;;;;;5066537;28;20551;-71
2021/03/31 09:22:04;;;;;;;9.63;7.77;;;29.10;38.00;;;;;;5061290;28;20447;-70
2021/03/31 09:24:30;;;;;;;9.70;8.70;;;29.60;36.50;;;;;;5054374;28;20434;-70
2021/03/31 09:27:02;;;;;;;9.80;8.07;;;30.10;36.30;;;;;;5061472;28;20464;-69
2021/03/31 09:29:28;;;;;;;11.73;8.63;;;30.40;35.70;;;;;;5064929;28;20811;-71
2021/03/31 09:31:55;;;;;;;11.07;8.03;;;30.60;35.10;;;;;;5053917;28;20434;-71
2021/03/31 09:34:21;;;;;;;14.33;9.43;;;31.20;34.70;;;;;;5061775;28;20427;-71
2021/03/31 09:36:57;;;;;;;11.30;9.90;;;31.60;34.00;;;;;;5053388;28;20460;-71
2021/03/31 09:39:22;;;;;;;16.00;10.80;;;31.70;34.00;;;;;;5057207;28;20209;-68
2021/03/31 09:41:48;;;;;;;14.57;9.77;;;32.10;33.70;;;;;;5056548;28;20432;-70
2021/03/31 09:44:14;;;;;;;14.13;9.77;;;32.10;33.10;;;;;;5052173;28;20589;-71
2021/03/31 09:46:40;;;;;;;10.97;9.87;;;32.10;33.20;;;;;;5049736;28;20198;-71
2021/03/31 09:49:05;;;;;;;12.97;9.83;;;31.20;33.80;;;;;;5055788;28;20220;-71
2021/03/31 09:51:32;;;;;;;12.93;9.83;;;32.10;33.10;;;;;;5057962;28;20526;-69
2021/03/31 09:53:58;;;;;;;10.80;9.70;;;32.90;32.90;;;;;;5059843;28;20230;-71
2021/03/31 09:56:24;;;;;;;11.47;9.77;;;33.00;33.10;;;;;;5059345;28;20522;-71
2021/03/31 09:58:50;;;;;;;14.10;9.80;;;31.60;33.10;;;;;;5069849;28;20212;-70
2021/03/31 10:01:17;;;;;;;18.30;9.57;;;31.00;33.80;;;;;;5069839;28;20222;-72
2021/03/31 10:03:45;;;;;;;11.90;8.73;;;30.70;34.90;;;;;;5069536;28;20175;-70
2021/03/31 10:06:24;;;;;;;14.50;9.97;;;31.60;34.30;;;;;;5069365;28;20844;-69
2021/03/31 10:08:50;;;;;;;13.07;10.07;;;31.90;33.60;;;;;;5069316;28;20928;-70
2021/03/31 10:11:26;;;;;;;15.03;9.67;;;32.40;33.20;;;;;;5069370;28;20423;-69
2021/03/31 10:13:52;;;;;;;9.60;8.70;;;33.10;32.30;;;;;;5069607;28;21081;-69
2021/03/31 10:16:18;;;;;;;11.50;10.30;;;34.20;31.40;;;;;;5068750;28;20420;-71
2021/03/31 10:18:45;;;;;;;9.13;8.30;;;32.80;30.70;;;;;;5068768;28;20185;-71
2021/03/31 10:21:11;;;;;;;11.60;10.27;;;33.50;31.00;;;;;;5069208;28;20177;-69
2021/03/31 10:23:38;;;;;;;12.77;9.93;;;34.10;30.40;;;;;;5069741;28;20419;-71
2021/03/31 10:26:24;;;;;;;10.00;9.03;;;34.90;29.70;;;;;;5069949;28;20427;-70
2021/03/31 10:28:51;;;;;;;13.53;10.73;;;36.30;29.30;;;;;;5069217;28;20443;-71
2021/03/31 10:31:27;;;;;;;11.50;10.30;;;37.00;28.40;;;;;;5069281;28;20772;-69
2021/03/31 10:33:54;;;;;;;15.10;11.47;;;37.10;29.40;;;;;;5069694;28;20424;-68
2021/03/31 10:36:37;;;;;;;11.17;10.17;;;37.80;29.50;;;;;;5069072;28;20784;-70
2021/03/31 10:49:59;;;;;;;12.67;11.37;;;39.20;28.30;;;;;;5068973;28;20504;-70
2021/03/31 10:52:28;;;;;;;13.70;12.30;;;39.30;27.80;;;;;;5069213;28;20431;-70
2021/03/31 10:54:55;;;;;;;12.50;10.93;;;39.20;27.80;;;;;;5068928;28;20455;-69
2021/03/31 10:57:21;;;;;;;14.70;11.20;;;39.20;27.70;;;;;;5068663;28;20497;-70
2021/03/31 10:59:46;;;;;;;12.40;11.17;;;39.40;27.20;;;;;;5068400;28;20885;-70
2021/03/31 11:02:13;;;;;;;12.17;11.00;;;39.40;27.10;;;;;;5068884;28;20169;-70
2021/03/31 11:04:38;;;;;;;15.23;11.93;;;40.00;26.90;;;;;;5068865;28;20220;-69
2021/03/31 11:07:04;;;;;;;11.47;10.37;;;41.00;26.80;;;;;;5068651;28;20534;-70
2021/03/31 11:09:30;;;;;;;13.40;12.00;;;41.90;26.20;;;;;;5067063;28;20196;-69
2021/03/31 11:11:56;;;;;;;12.47;11.20;;;42.40;25.90;;;;;;5065259;28;20272;-70
2021/03/31 11:14:23;;;;;;;11.87;10.87;;;42.40;25.50;;;;;;5053857;28;20184;-70
2021/03/31 11:16:58;;;;;;;12.03;10.90;;;42.30;25.40;;;;;;5058236;28;20454;-70
2021/03/31 11:19:49;;;;;;;11.53;10.47;;;42.80;25.30;;;;;;5064374;28;20530;-71
2021/03/31 11:27:43;;;;;;;11.90;10.67;;;42.70;24.50;;;;;;5054795;28;20443;-70
2021/03/31 11:30:10;;;;;;;12.90;11.57;;;42.90;24.30;;;;;;5058485;28;20451;-70
2021/03/31 11:32:38;;;;;;;13.63;12.47;;;42.90;24.10;;;;;;5051801;28;20187;-70
2021/03/31 11:35:05;;;;;;;12.97;12.07;;;43.50;23.80;;;;;;5065296;28;20419;-70
2021/03/31 11:37:31;;;;;;;14.60;13.27;;;43.40;23.70;;;;;;5063559;28;20940;-70
2021/03/31 11:39:56;;;;;;;16.63;13.07;;;43.10;23.70;;;;;;5055184;28;20589;-69
2021/03/31 11:42:22;;;;;;;13.60;12.30;;;43.50;23.30;;;;;;5060804;28;20188;-70
2021/03/31 11:44:48;;;;;;;12.00;11.00;;;43.50;23.20;;;;;;5053503;28;20189;-70
2021/03/31 11:47:14;;;;;;;14.00;12.13;;;43.50;23.30;;;;;;5056652;28;20181;-70
2021/03/31 11:49:40;;;;;;;14.10;12.77;;;43.70;23.20;;;;;;5062848;28;20212;-70
2021/03/31 11:52:06;;;;;;;13.70;12.50;;;44.20;23.00;;;;;;5061072;28;20518;-71
2021/03/31 11:54:32;;;;;;;16.10;13.63;;;44.70;23.10;;;;;;5061375;28;20272;-70
2021/03/31 11:56:57;;;;;;;13.20;12.10;;;44.80;22.70;;;;;;5053453;28;20960;-69
2021/03/31 11:59:23;;;;;;;13.73;12.43;;;45.00;22.70;;;;;;5054600;28;20200;-69
2021/03/31 12:01:49;;;;;;;13.03;12.00;;;44.70;22.40;;;;;;5058267;28;20536;-70
2021/03/31 12:04:15;;;;;;;12.67;11.47;;;45.00;22.60;;;;;;5056016;28;20187;-70
2021/03/31 12:06:41;;;;;;;13.37;12.20;;;44.80;22.40;;;;;;5063409;28;20681;-71
2021/03/31 12:09:08;;;;;;;13.00;11.70;;;43.90;22.40;;;;;;5049373;28;20459;-69
2021/03/31 12:11:34;;;;;;;12.47;11.37;;;43.90;22.70;;;;;;5062800;28;20470;-71
2021/03/31 12:13:59;;;;;;;15.67;13.20;;;44.70;22.50;;;;;;5062901;28;20841;-70
2021/03/31 12:16:25;;;;;;;13.27;12.17;;;44.80;22.50;;;;;;5055988;28;20196;-69
2021/03/31 12:18:51;;;;;;;12.97;11.87;;;45.50;21.90;;;;;;5051926;28;20283;-70
2021/03/31 12:21:16;;;;;;;13.93;12.67;;;45.70;22.00;;;;;;5059917;28;20188;-70
2021/03/31 12:23:42;;;;;;;13.27;12.17;;;45.40;21.70;;;;;;5064623;28;20184;-71
2021/03/31 12:26:08;;;;;;;14.70;13.27;;;45.00;21.90;;;;;;5066391;28;20554;-70
2021/03/31 12:28:37;;;;;;;14.00;12.80;;;46.00;21.70;;;;;;5055099;28;20241;-70
2021/03/31 12:31:08;;;;;;;12.97;11.80;;;46.90;21.40;;;;;;5060687;28;20176;-71
2021/03/31 12:33:35;;;;;;;13.07;11.93;;;46.50;21.40;;;;;;5053857;28;20901;-70
2021/03/31 12:36:01;;;;;;;14.43;13.17;;;46.60;21.20;;;;;;5053506;28;20486;-70
2021/03/31 12:38:27;;;;;;;13.57;12.47;;;45.80;21.20;;;;;;5062340;28;20470;-69
2021/03/31 12:40:52;;;;;;;13.03;12.00;;;46.20;21.10;;;;;;5055457;28;21002;-65
2021/03/31 12:43:20;;;;;;;13.97;12.50;;;45.50;21.20;;;;;;5058841;28;20203;-70
2021/03/31 12:45:45;;;;;;;13.47;12.07;;;46.00;21.30;;;;;;5061437;28;20616;-70
2021/03/31 12:48:11;;;;;;;15.87;12.37;;;45.60;21.00;;;;;;5051568;28;20443;-71
2021/03/31 12:50:37;;;;;;;13.20;11.80;;;45.30;21.30;;;;;;5049134;28;20197;-71
2021/03/31 12:53:07;;;;;;;13.73;12.63;;;45.10;21.70;;;;;;5046985;28;20566;-71
2021/03/31 12:55:36;;;;;;;13.10;11.90;;;45.80;21.40;;;;;;5050180;28;20455;-71
2021/03/31 12:58:05;;;;;;;14.33;13.13;;;46.10;21.20;;;;;;5050638;28;20961;-68
2021/03/31 13:00:31;;;;;;;14.20;12.50;;;46.00;20.80;;;;;;5066339;28;20446;-70
2021/03/31 13:02:57;;;;;;;13.20;12.00;;;45.90;21.10;;;;;;5059454;28;20442;-70
2021/03/31 13:05:22;;;;;;;14.90;12.40;;;46.40;20.90;;;;;;5060187;28;20177;-69
2021/03/31 13:07:48;;;;;;;13.93;12.50;;;46.90;20.90;;;;;;5058675;28;20182;-69